sensor_id;sensor_type;location;lat;lon;timestamp;P1;durP1;ratioP1;P2;durP2;ratioP2
77597;SDS011;66756;42.774;23.354;2023-03-14T00:02:22;34.08;;;17.40;;
77597;SDS011;66756;42.774;23.354;2023-03-14T00:04:48;35.67;;;17.77;;
77597;SDS011;66756;42.774;23.354;2023-03-14T00:07:14;34.90;;;17.80;;
77597;SDS011;66756;42.774;23.354;2023-03-14T00:09:40;35.83;;;18.38;;
77597;SDS011;66756;42.774;23.354;2023-03-14T00:12:06;31.80;;;16.38;;
77597;SDS011;66756;42.774;23.354;2023-03-14T00:14:32;33.35;;;15.02;;
77597;SDS011;66756;42.774;23.354;2023-03-14T00:16:58;29.67;;;14.68;;
77597;SDS011;66756;42.774;23.354;2023-03-14T00:19:24;32.00;;;15.15;;
77597;SDS011;66756;42.774;23.354;2023-03-14T00:21:50;35.17;;;16.08;;
77597;SDS011;66756;42.774;23.354;2023-03-14T00:24:16;32.97;;;16.80;;
77597;SDS011;66756;42.774;23.354;2023-03-14T00:26:42;32.72;;;17.90;;
77597;SDS011;66756;42.774;23.354;2023-03-14T00:29:08;43.97;;;21.67;;
77597;SDS011;66756;42.774;23.354;2023-03-14T00:31:34;54.65;;;25.17;;
77597;SDS011;66756;42.774;23.354;2023-03-14T00:34:01;43.60;;;21.75;;
77597;SDS011;66756;42.774;23.354;2023-03-14T00:36:27;32.15;;;16.83;;
77597;SDS011;66756;42.774;23.354;2023-03-14T00:38:53;38.05;;;18.92;;
77597;SDS011;66756;42.774;23.354;2023-03-14T00:41:22;48.67;;;22.95;;
77597;SDS011;66756;42.774;23.354;2023-03-14T00:43:49;43.95;;;19.45;;
77597;SDS011;66756;42.774;23.354;2023-03-14T00:46:15;41.22;;;19.33;;
77597;SDS011;66756;42.774;23.354;2023-03-14T00:48:41;37.90;;;18.40;;
77597;SDS011;66756;42.774;23.354;2023-03-14T00:51:07;33.22;;;17.35;;
77597;SDS011;66756;42.774;23.354;2023-03-14T00:53:37;35.50;;;16.75;;
77597;SDS011;66756;42.774;23.354;2023-03-14T00:56:04;30.27;;;14.68;;
77597;SDS011;66756;42.774;23.354;2023-03-14T00:58:30;28.65;;;15.18;;
77597;SDS011;66756;42.774;23.354;2023-03-14T01:00:56;29.13;;;14.15;;
77597;SDS011;66756;42.774;23.354;2023-03-14T01:03:22;30.08;;;13.82;;
77597;SDS011;66756;42.774;23.354;2023-03-14T01:05:49;27.58;;;13.98;;
77597;SDS011;66756;42.774;23.354;2023-03-14T01:08:15;27.95;;;13.82;;
77597;SDS011;66756;42.774;23.354;2023-03-14T01:10:41;24.95;;;12.77;;
77597;SDS011;66756;42.774;23.354;2023-03-14T01:13:08;28.38;;;13.98;;
77597;SDS011;66756;42.774;23.354;2023-03-14T01:15:34;27.15;;;13.57;;
77597;SDS011;66756;42.774;23.354;2023-03-14T01:18:00;29.63;;;12.48;;
77597;SDS011;66756;42.774;23.354;2023-03-14T01:20:26;26.45;;;13.35;;
77597;SDS011;66756;42.774;23.354;2023-03-14T01:22:52;26.90;;;13.63;;
77597;SDS011;66756;42.774;23.354;2023-03-14T01:25:18;29.77;;;12.65;;
77597;SDS011;66756;42.774;23.354;2023-03-14T01:27:45;30.77;;;12.80;;
77597;SDS011;66756;42.774;23.354;2023-03-14T01:30:11;23.65;;;12.57;;
77597;SDS011;66756;42.774;23.354;2023-03-14T01:32:37;25.23;;;12.68;;
77597;SDS011;66756;42.774;23.354;2023-03-14T01:35:03;26.77;;;13.77;;
77597;SDS011;66756;42.774;23.354;2023-03-14T01:37:30;30.33;;;13.30;;
77597;SDS011;66756;42.774;23.354;2023-03-14T01:39:56;28.42;;;14.65;;
77597;SDS011;66756;42.774;23.354;2023-03-14T01:42:22;28.92;;;12.65;;
77597;SDS011;66756;42.774;23.354;2023-03-14T01:44:55;22.70;;;11.80;;
77597;SDS011;66756;42.774;23.354;2023-03-14T01:47:21;27.45;;;11.70;;
77597;SDS011;66756;42.774;23.354;2023-03-14T01:49:56;33.25;;;14.18;;
77597;SDS011;66756;42.774;23.354;2023-03-14T01:52:27;24.38;;;12.07;;
77597;SDS011;66756;42.774;23.354;2023-03-14T01:54:58;30.02;;;12.90;;
77597;SDS011;66756;42.774;23.354;2023-03-14T01:57:30;25.95;;;12.40;;
77597;SDS011;66756;42.774;23.354;2023-03-14T01:59:59;21.48;;;11.30;;
77597;SDS011;66756;42.774;23.354;2023-03-14T02:02:27;23.65;;;12.35;;
77597;SDS011;66756;42.774;23.354;2023-03-14T02:04:53;24.58;;;11.45;;
77597;SDS011;66756;42.774;23.354;2023-03-14T02:07:22;25.73;;;12.82;;
77597;SDS011;66756;42.774;23.354;2023-03-14T02:09:50;23.80;;;11.02;;
77597;SDS011;66756;42.774;23.354;2023-03-14T02:12:17;21.88;;;11.55;;
77597;SDS011;66756;42.774;23.354;2023-03-14T02:14:43;25.40;;;12.50;;
77597;SDS011;66756;42.774;23.354;2023-03-14T02:17:13;30.67;;;13.32;;
77597;SDS011;66756;42.774;23.354;2023-03-14T02:22:07;35.35;;;14.98;;
77597;SDS011;66756;42.774;23.354;2023-03-14T02:24:50;28.70;;;13.40;;
77597;SDS011;66756;42.774;23.354;2023-03-14T02:27:19;24.45;;;11.10;;
77597;SDS011;66756;42.774;23.354;2023-03-14T02:29:48;24.20;;;10.23;;
77597;SDS011;66756;42.774;23.354;2023-03-14T02:32:15;23.45;;;13.80;;
77597;SDS011;66756;42.774;23.354;2023-03-14T02:34:42;22.25;;;10.95;;
77597;SDS011;66756;42.774;23.354;2023-03-14T02:37:09;23.90;;;10.43;;
77597;SDS011;66756;42.774;23.354;2023-03-14T02:39:39;18.05;;;8.15;;
77597;SDS011;66756;42.774;23.354;2023-03-14T02:42:06;24.27;;;11.25;;
77597;SDS011;66756;42.774;23.354;2023-03-14T02:44:32;25.42;;;12.82;;
77597;SDS011;66756;42.774;23.354;2023-03-14T02:46:58;22.70;;;10.25;;
77597;SDS011;66756;42.774;23.354;2023-03-14T02:49:24;23.42;;;11.38;;
77597;SDS011;66756;42.774;23.354;2023-03-14T02:51:50;26.55;;;11.07;;
77597;SDS011;66756;42.774;23.354;2023-03-14T02:54:16;20.50;;;11.15;;
77597;SDS011;66756;42.774;23.354;2023-03-14T02:56:43;22.90;;;11.10;;
77597;SDS011;66756;42.774;23.354;2023-03-14T02:59:09;21.40;;;10.63;;
77597;SDS011;66756;42.774;23.354;2023-03-14T03:01:35;22.10;;;11.13;;
77597;SDS011;66756;42.774;23.354;2023-03-14T03:04:01;27.60;;;12.70;;
77597;SDS011;66756;42.774;23.354;2023-03-14T03:06:27;20.00;;;11.35;;
77597;SDS011;66756;42.774;23.354;2023-03-14T03:08:53;21.38;;;11.63;;
77597;SDS011;66756;42.774;23.354;2023-03-14T03:11:19;19.17;;;10.00;;
77597;SDS011;66756;42.774;23.354;2023-03-14T03:13:45;20.17;;;10.10;;
77597;SDS011;66756;42.774;23.354;2023-03-14T03:16:11;18.35;;;9.20;;
77597;SDS011;66756;42.774;23.354;2023-03-14T03:18:39;20.30;;;11.20;;
77597;SDS011;66756;42.774;23.354;2023-03-14T03:21:05;21.20;;;10.23;;
77597;SDS011;66756;42.774;23.354;2023-03-14T03:23:33;18.80;;;9.50;;
77597;SDS011;66756;42.774;23.354;2023-03-14T03:26:00;20.48;;;10.20;;
77597;SDS011;66756;42.774;23.354;2023-03-14T03:28:27;21.83;;;10.00;;
77597;SDS011;66756;42.774;23.354;2023-03-14T03:30:54;21.55;;;9.57;;
77597;SDS011;66756;42.774;23.354;2023-03-14T03:33:20;18.90;;;9.90;;
77597;SDS011;66756;42.774;23.354;2023-03-14T03:35:49;18.55;;;9.23;;
77597;SDS011;66756;42.774;23.354;2023-03-14T03:38:15;19.13;;;10.02;;
77597;SDS011;66756;42.774;23.354;2023-03-14T03:40:42;19.60;;;9.90;;
77597;SDS011;66756;42.774;23.354;2023-03-14T03:43:08;16.90;;;8.98;;
77597;SDS011;66756;42.774;23.354;2023-03-14T03:45:34;21.98;;;9.95;;
77597;SDS011;66756;42.774;23.354;2023-03-14T03:48:00;19.85;;;9.98;;
77597;SDS011;66756;42.774;23.354;2023-03-14T03:50:26;18.98;;;10.23;;
77597;SDS011;66756;42.774;23.354;2023-03-14T03:52:52;20.05;;;9.07;;
77597;SDS011;66756;42.774;23.354;2023-03-14T03:55:18;17.83;;;9.02;;
77597;SDS011;66756;42.774;23.354;2023-03-14T03:57:44;21.95;;;10.27;;
77597;SDS011;66756;42.774;23.354;2023-03-14T04:00:10;17.42;;;9.05;;
77597;SDS011;66756;42.774;23.354;2023-03-14T04:02:37;14.05;;;7.93;;
77597;SDS011;66756;42.774;23.354;2023-03-14T04:05:04;21.02;;;8.57;;
77597;SDS011;66756;42.774;23.354;2023-03-14T04:07:33;17.17;;;8.63;;
77597;SDS011;66756;42.774;23.354;2023-03-14T04:09:59;15.38;;;7.97;;
77597;SDS011;66756;42.774;23.354;2023-03-14T04:12:25;15.52;;;7.85;;
77597;SDS011;66756;42.774;23.354;2023-03-14T04:14:51;12.50;;;7.68;;
77597;SDS011;66756;42.774;23.354;2023-03-14T04:17:17;15.35;;;7.13;;
77597;SDS011;66756;42.774;23.354;2023-03-14T04:19:43;18.33;;;7.90;;
77597;SDS011;66756;42.774;23.354;2023-03-14T04:22:09;20.13;;;8.80;;
77597;SDS011;66756;42.774;23.354;2023-03-14T04:24:35;11.82;;;6.38;;
77597;SDS011;66756;42.774;23.354;2023-03-14T04:27:01;17.52;;;8.35;;
77597;SDS011;66756;42.774;23.354;2023-03-14T04:29:27;16.15;;;8.05;;
77597;SDS011;66756;42.774;23.354;2023-03-14T04:31:53;13.88;;;7.22;;
77597;SDS011;66756;42.774;23.354;2023-03-14T04:34:19;12.25;;;6.47;;
77597;SDS011;66756;42.774;23.354;2023-03-14T04:36:45;13.25;;;7.38;;
77597;SDS011;66756;42.774;23.354;2023-03-14T04:39:11;15.68;;;7.70;;
77597;SDS011;66756;42.774;23.354;2023-03-14T04:41:37;16.30;;;7.97;;
77597;SDS011;66756;42.774;23.354;2023-03-14T04:44:03;14.82;;;6.45;;
77597;SDS011;66756;42.774;23.354;2023-03-14T04:46:29;12.00;;;7.22;;
77597;SDS011;66756;42.774;23.354;2023-03-14T04:48:55;15.70;;;7.80;;
77597;SDS011;66756;42.774;23.354;2023-03-14T04:51:22;13.77;;;6.70;;
77597;SDS011;66756;42.774;23.354;2023-03-14T04:53:48;16.33;;;7.30;;
77597;SDS011;66756;42.774;23.354;2023-03-14T04:56:14;14.00;;;7.40;;
77597;SDS011;66756;42.774;23.354;2023-03-14T04:58:40;12.70;;;6.72;;
77597;SDS011;66756;42.774;23.354;2023-03-14T05:01:06;15.68;;;7.38;;
77597;SDS011;66756;42.774;23.354;2023-03-14T05:03:32;15.68;;;6.43;;
77597;SDS011;66756;42.774;23.354;2023-03-14T05:06:01;15.07;;;7.07;;
77597;SDS011;66756;42.774;23.354;2023-03-14T05:08:27;14.63;;;7.07;;
77597;SDS011;66756;42.774;23.354;2023-03-14T05:10:53;13.05;;;7.13;;
77597;SDS011;66756;42.774;23.354;2023-03-14T05:13:19;13.10;;;6.60;;
77597;SDS011;66756;42.774;23.354;2023-03-14T05:15:45;15.18;;;7.03;;
77597;SDS011;66756;42.774;23.354;2023-03-14T05:18:11;14.43;;;6.75;;
77597;SDS011;66756;42.774;23.354;2023-03-14T05:20:37;18.15;;;7.68;;
77597;SDS011;66756;42.774;23.354;2023-03-14T05:23:03;16.45;;;8.38;;
77597;SDS011;66756;42.774;23.354;2023-03-14T05:25:30;14.85;;;7.18;;
77597;SDS011;66756;42.774;23.354;2023-03-14T05:27:56;17.00;;;9.02;;
77597;SDS011;66756;42.774;23.354;2023-03-14T05:30:23;12.48;;;7.75;;
77597;SDS011;66756;42.774;23.354;2023-03-14T05:32:49;13.18;;;7.32;;
77597;SDS011;66756;42.774;23.354;2023-03-14T05:35:15;16.58;;;8.88;;
77597;SDS011;66756;42.774;23.354;2023-03-14T05:37:41;16.75;;;8.43;;
77597;SDS011;66756;42.774;23.354;2023-03-14T05:40:07;17.20;;;7.65;;
77597;SDS011;66756;42.774;23.354;2023-03-14T05:42:33;15.45;;;8.63;;
77597;SDS011;66756;42.774;23.354;2023-03-14T05:44:59;13.77;;;7.80;;
77597;SDS011;66756;42.774;23.354;2023-03-14T05:47:25;16.33;;;7.68;;
77597;SDS011;66756;42.774;23.354;2023-03-14T05:49:51;16.15;;;8.30;;
77597;SDS011;66756;42.774;23.354;2023-03-14T05:52:18;15.73;;;7.53;;
77597;SDS011;66756;42.774;23.354;2023-03-14T05:54:44;13.50;;;7.20;;
77597;SDS011;66756;42.774;23.354;2023-03-14T05:57:10;13.30;;;7.65;;
77597;SDS011;66756;42.774;23.354;2023-03-14T05:59:36;14.50;;;8.68;;
77597;SDS011;66756;42.774;23.354;2023-03-14T06:02:02;13.35;;;7.07;;
77597;SDS011;66756;42.774;23.354;2023-03-14T06:04:28;11.35;;;6.18;;
77597;SDS011;66756;42.774;23.354;2023-03-14T06:06:54;15.63;;;6.80;;
77597;SDS011;66756;42.774;23.354;2023-03-14T06:09:20;12.50;;;6.45;;
77597;SDS011;66756;42.774;23.354;2023-03-14T06:11:48;12.07;;;6.68;;
77597;SDS011;66756;42.774;23.354;2023-03-14T06:14:14;11.32;;;7.13;;
77597;SDS011;66756;42.774;23.354;2023-03-14T06:16:40;12.98;;;6.72;;
77597;SDS011;66756;42.774;23.354;2023-03-14T06:19:06;12.43;;;6.38;;
77597;SDS011;66756;42.774;23.354;2023-03-14T06:21:32;11.27;;;6.60;;
77597;SDS011;66756;42.774;23.354;2023-03-14T06:23:58;14.13;;;6.72;;
77597;SDS011;66756;42.774;23.354;2023-03-14T06:26:24;15.95;;;7.90;;
77597;SDS011;66756;42.774;23.354;2023-03-14T06:28:50;12.57;;;7.10;;
77597;SDS011;66756;42.774;23.354;2023-03-14T06:31:16;10.15;;;6.05;;
77597;SDS011;66756;42.774;23.354;2023-03-14T06:33:42;12.52;;;6.72;;
77597;SDS011;66756;42.774;23.354;2023-03-14T06:36:08;12.95;;;6.47;;
77597;SDS011;66756;42.774;23.354;2023-03-14T06:38:34;11.40;;;6.00;;
77597;SDS011;66756;42.774;23.354;2023-03-14T06:41:04;13.07;;;6.70;;
77597;SDS011;66756;42.774;23.354;2023-03-14T06:43:30;8.93;;;4.93;;
77597;SDS011;66756;42.774;23.354;2023-03-14T06:45:56;13.75;;;5.97;;
77597;SDS011;66756;42.774;23.354;2023-03-14T06:48:22;12.05;;;6.15;;
77597;SDS011;66756;42.774;23.354;2023-03-14T06:50:48;10.30;;;5.10;;
77597;SDS011;66756;42.774;23.354;2023-03-14T06:53:14;10.10;;;4.85;;
77597;SDS011;66756;42.774;23.354;2023-03-14T06:55:40;8.43;;;4.72;;
77597;SDS011;66756;42.774;23.354;2023-03-14T06:58:08;9.27;;;4.40;;
77597;SDS011;66756;42.774;23.354;2023-03-14T07:00:34;5.28;;;3.15;;
77597;SDS011;66756;42.774;23.354;2023-03-14T07:03:00;7.00;;;3.15;;
77597;SDS011;66756;42.774;23.354;2023-03-14T07:05:26;9.52;;;5.05;;
77597;SDS011;66756;42.774;23.354;2023-03-14T07:07:52;6.82;;;3.50;;
77597;SDS011;66756;42.774;23.354;2023-03-14T07:10:18;9.40;;;4.30;;
77597;SDS011;66756;42.774;23.354;2023-03-14T07:12:44;7.72;;;4.70;;
77597;SDS011;66756;42.774;23.354;2023-03-14T07:15:10;7.82;;;4.55;;
77597;SDS011;66756;42.774;23.354;2023-03-14T07:17:36;8.50;;;4.70;;
77597;SDS011;66756;42.774;23.354;2023-03-14T07:20:03;7.05;;;3.85;;
77597;SDS011;66756;42.774;23.354;2023-03-14T07:22:29;8.63;;;5.10;;
77597;SDS011;66756;42.774;23.354;2023-03-14T07:24:55;8.20;;;4.78;;
77597;SDS011;66756;42.774;23.354;2023-03-14T07:27:21;7.65;;;4.45;;
77597;SDS011;66756;42.774;23.354;2023-03-14T07:29:47;8.35;;;4.93;;
77597;SDS011;66756;42.774;23.354;2023-03-14T07:32:13;8.10;;;4.15;;
77597;SDS011;66756;42.774;23.354;2023-03-14T07:34:42;8.55;;;4.47;;
77597;SDS011;66756;42.774;23.354;2023-03-14T07:37:09;9.43;;;5.05;;
77597;SDS011;66756;42.774;23.354;2023-03-14T07:39:35;8.68;;;5.13;;
77597;SDS011;66756;42.774;23.354;2023-03-14T07:42:01;10.07;;;5.50;;
77597;SDS011;66756;42.774;23.354;2023-03-14T07:44:27;9.15;;;5.82;;
77597;SDS011;66756;42.774;23.354;2023-03-14T07:46:53;8.55;;;5.03;;
77597;SDS011;66756;42.774;23.354;2023-03-14T07:49:19;10.20;;;6.28;;
77597;SDS011;66756;42.774;23.354;2023-03-14T07:51:48;9.13;;;5.03;;
77597;SDS011;66756;42.774;23.354;2023-03-14T07:54:15;8.80;;;5.28;;
77597;SDS011;66756;42.774;23.354;2023-03-14T07:56:41;9.52;;;5.30;;
77597;SDS011;66756;42.774;23.354;2023-03-14T07:59:07;9.88;;;5.70;;
77597;SDS011;66756;42.774;23.354;2023-03-14T08:01:33;10.60;;;6.78;;
77597;SDS011;66756;42.774;23.354;2023-03-14T08:03:59;11.20;;;6.05;;
77597;SDS011;66756;42.774;23.354;2023-03-14T08:06:25;10.95;;;6.45;;
77597;SDS011;66756;42.774;23.354;2023-03-14T08:08:51;11.85;;;5.22;;
77597;SDS011;66756;42.774;23.354;2023-03-14T08:11:17;9.27;;;5.13;;
77597;SDS011;66756;42.774;23.354;2023-03-14T08:13:43;10.48;;;5.60;;
77597;SDS011;66756;42.774;23.354;2023-03-14T08:16:14;9.35;;;5.07;;
77597;SDS011;66756;42.774;23.354;2023-03-14T08:18:41;7.05;;;4.18;;
77597;SDS011;66756;42.774;23.354;2023-03-14T08:21:07;9.40;;;3.67;;
77597;SDS011;66756;42.774;23.354;2023-03-14T08:23:33;6.78;;;3.22;;
77597;SDS011;66756;42.774;23.354;2023-03-14T08:25:59;5.72;;;3.13;;
77597;SDS011;66756;42.774;23.354;2023-03-14T08:28:25;7.53;;;3.45;;
77597;SDS011;66756;42.774;23.354;2023-03-14T08:30:55;4.60;;;3.35;;
77597;SDS011;66756;42.774;23.354;2023-03-14T08:33:22;6.38;;;3.13;;
77597;SDS011;66756;42.774;23.354;2023-03-14T08:35:48;5.93;;;2.78;;
77597;SDS011;66756;42.774;23.354;2023-03-14T08:38:14;4.88;;;3.45;;
77597;SDS011;66756;42.774;23.354;2023-03-14T08:40:41;8.65;;;3.03;;
77597;SDS011;66756;42.774;23.354;2023-03-14T08:43:07;5.00;;;2.88;;
77597;SDS011;66756;42.774;23.354;2023-03-14T08:45:33;5.28;;;2.78;;
77597;SDS011;66756;42.774;23.354;2023-03-14T08:47:59;6.40;;;3.38;;
77597;SDS011;66756;42.774;23.354;2023-03-14T08:50:25;5.20;;;3.22;;
77597;SDS011;66756;42.774;23.354;2023-03-14T08:52:51;4.10;;;2.25;;
77597;SDS011;66756;42.774;23.354;2023-03-14T08:55:17;4.30;;;2.28;;
77597;SDS011;66756;42.774;23.354;2023-03-14T08:57:43;4.10;;;2.55;;
77597;SDS011;66756;42.774;23.354;2023-03-14T09:00:09;4.85;;;2.33;;
77597;SDS011;66756;42.774;23.354;2023-03-14T09:02:39;4.85;;;2.30;;
77597;SDS011;66756;42.774;23.354;2023-03-14T09:05:05;4.75;;;2.28;;
77597;SDS011;66756;42.774;23.354;2023-03-14T09:07:31;4.07;;;1.88;;
77597;SDS011;66756;42.774;23.354;2023-03-14T09:09:57;3.88;;;2.78;;
77597;SDS011;66756;42.774;23.354;2023-03-14T09:12:23;4.18;;;2.38;;
77597;SDS011;66756;42.774;23.354;2023-03-14T09:14:49;3.60;;;1.88;;
77597;SDS011;66756;42.774;23.354;2023-03-14T09:17:15;6.53;;;2.28;;
77597;SDS011;66756;42.774;23.354;2023-03-14T09:19:41;5.40;;;1.83;;
77597;SDS011;66756;42.774;23.354;2023-03-14T09:22:07;4.82;;;2.05;;
77597;SDS011;66756;42.774;23.354;2023-03-14T09:24:33;3.08;;;1.75;;
77597;SDS011;66756;42.774;23.354;2023-03-14T09:27:00;4.40;;;2.47;;
77597;SDS011;66756;42.774;23.354;2023-03-14T09:29:26;3.92;;;2.13;;
77597;SDS011;66756;42.774;23.354;2023-03-14T09:31:52;5.63;;;2.03;;
77597;SDS011;66756;42.774;23.354;2023-03-14T09:34:18;19.65;;;8.50;;
77597;SDS011;66756;42.774;23.354;2023-03-14T09:36:44;39.55;;;16.48;;
77597;SDS011;66756;42.774;23.354;2023-03-14T09:39:11;20.88;;;9.23;;
77597;SDS011;66756;42.774;23.354;2023-03-14T09:41:41;4.78;;;3.00;;
77597;SDS011;66756;42.774;23.354;2023-03-14T09:47:06;4.85;;;2.65;;
77597;SDS011;66756;42.774;23.354;2023-03-14T09:49:34;8.20;;;3.90;;
77597;SDS011;66756;42.774;23.354;2023-03-14T09:52:01;3.55;;;2.05;;
77597;SDS011;66756;42.774;23.354;2023-03-14T09:56:57;5.72;;;2.75;;
77597;SDS011;66756;42.774;23.354;2023-03-14T09:59:23;4.03;;;1.52;;
77597;SDS011;66756;42.774;23.354;2023-03-14T10:01:49;9.73;;;4.43;;
77597;SDS011;66756;42.774;23.354;2023-03-14T10:04:17;4.32;;;2.35;;
77597;SDS011;66756;42.774;23.354;2023-03-14T10:06:47;5.60;;;2.08;;
77597;SDS011;66756;42.774;23.354;2023-03-14T10:09:17;5.65;;;2.00;;
77597;SDS011;66756;42.774;23.354;2023-03-14T10:11:43;4.60;;;2.40;;
77597;SDS011;66756;42.774;23.354;2023-03-14T10:14:10;4.75;;;1.83;;
77597;SDS011;66756;42.774;23.354;2023-03-14T10:16:42;25.42;;;11.90;;
77597;SDS011;66756;42.774;23.354;2023-03-14T10:19:13;5.75;;;2.22;;
77597;SDS011;66756;42.774;23.354;2023-03-14T10:24:35;4.53;;;2.00;;
77597;SDS011;66756;42.774;23.354;2023-03-14T10:27:02;3.45;;;2.28;;
77597;SDS011;66756;42.774;23.354;2023-03-14T10:29:30;8.13;;;3.67;;
77597;SDS011;66756;42.774;23.354;2023-03-14T10:31:58;3.70;;;2.17;;
77597;SDS011;66756;42.774;23.354;2023-03-14T10:34:36;20.92;;;8.70;;
77597;SDS011;66756;42.774;23.354;2023-03-14T10:37:06;5.20;;;2.63;;
77597;SDS011;66756;42.774;23.354;2023-03-14T10:39:49;5.50;;;2.92;;
77597;SDS011;66756;42.774;23.354;2023-03-14T10:42:39;11.30;;;4.40;;
77597;SDS011;66756;42.774;23.354;2023-03-14T10:45:06;5.25;;;2.33;;
77597;SDS011;66756;42.774;23.354;2023-03-14T10:47:32;2.80;;;1.73;;
77597;SDS011;66756;42.774;23.354;2023-03-14T10:53:01;20.70;;;8.38;;
77597;SDS011;66756;42.774;23.354;2023-03-14T10:55:39;9.85;;;4.88;;
77597;SDS011;66756;42.774;23.354;2023-03-14T10:58:09;4.18;;;2.08;;
77597;SDS011;66756;42.774;23.354;2023-03-14T11:00:42;6.90;;;3.75;;
77597;SDS011;66756;42.774;23.354;2023-03-14T11:03:12;7.93;;;3.58;;
77597;SDS011;66756;42.774;23.354;2023-03-14T11:05:59;3.92;;;1.90;;
77597;SDS011;66756;42.774;23.354;2023-03-14T11:08:30;4.85;;;1.92;;
77597;SDS011;66756;42.774;23.354;2023-03-14T11:11:02;5.65;;;2.03;;
77597;SDS011;66756;42.774;23.354;2023-03-14T11:13:30;2.90;;;1.25;;
77597;SDS011;66756;42.774;23.354;2023-03-14T11:21:25;3.42;;;1.25;;
77597;SDS011;66756;42.774;23.354;2023-03-14T11:26:34;2.35;;;1.05;;
77597;SDS011;66756;42.774;23.354;2023-03-14T11:29:11;3.28;;;1.10;;
77597;SDS011;66756;42.774;23.354;2023-03-14T11:31:38;2.60;;;1.15;;
77597;SDS011;66756;42.774;23.354;2023-03-14T11:36:44;2.67;;;1.23;;
77597;SDS011;66756;42.774;23.354;2023-03-14T11:39:13;2.80;;;1.20;;
77597;SDS011;66756;42.774;23.354;2023-03-14T11:41:40;2.05;;;0.70;;
77597;SDS011;66756;42.774;23.354;2023-03-14T11:44:10;2.85;;;1.02;;
77597;SDS011;66756;42.774;23.354;2023-03-14T11:46:43;2.90;;;1.25;;
77597;SDS011;66756;42.774;23.354;2023-03-14T11:49:32;2.53;;;1.20;;
77597;SDS011;66756;42.774;23.354;2023-03-14T11:52:01;2.85;;;1.05;;
77597;SDS011;66756;42.774;23.354;2023-03-14T11:57:18;3.90;;;1.00;;
77597;SDS011;66756;42.774;23.354;2023-03-14T12:07:19;5.57;;;1.55;;
77597;SDS011;66756;42.774;23.354;2023-03-14T12:09:46;2.00;;;0.88;;
77597;SDS011;66756;42.774;23.354;2023-03-14T12:12:16;3.90;;;1.23;;
77597;SDS011;66756;42.774;23.354;2023-03-14T12:14:45;6.32;;;1.65;;
77597;SDS011;66756;42.774;23.354;2023-03-14T12:19:38;4.35;;;1.38;;
77597;SDS011;66756;42.774;23.354;2023-03-14T12:24:31;2.38;;;0.90;;
77597;SDS011;66756;42.774;23.354;2023-03-14T12:27:00;2.25;;;0.85;;
77597;SDS011;66756;42.774;23.354;2023-03-14T12:29:26;2.97;;;1.20;;
77597;SDS011;66756;42.774;23.354;2023-03-14T12:34:41;2.10;;;0.80;;
77597;SDS011;66756;42.774;23.354;2023-03-14T12:37:16;2.58;;;0.65;;
77597;SDS011;66756;42.774;23.354;2023-03-14T12:39:58;7.07;;;0.77;;
77597;SDS011;66756;42.774;23.354;2023-03-14T12:47:43;3.33;;;0.60;;
77597;SDS011;66756;42.774;23.354;2023-03-14T12:50:14;2.50;;;0.57;;
77597;SDS011;66756;42.774;23.354;2023-03-14T12:55:15;2.63;;;0.50;;
77597;SDS011;66756;42.774;23.354;2023-03-14T12:57:44;1.65;;;0.50;;
77597;SDS011;66756;42.774;23.354;2023-03-14T13:00:19;2.20;;;0.98;;
77597;SDS011;66756;42.774;23.354;2023-03-14T13:02:46;2.30;;;0.63;;
77597;SDS011;66756;42.774;23.354;2023-03-14T13:12:39;2.05;;;0.85;;
77597;SDS011;66756;42.774;23.354;2023-03-14T13:15:17;1.85;;;0.60;;
77597;SDS011;66756;42.774;23.354;2023-03-14T13:17:44;1.73;;;0.40;;
77597;SDS011;66756;42.774;23.354;2023-03-14T13:20:17;3.70;;;0.40;;
77597;SDS011;66756;42.774;23.354;2023-03-14T13:22:47;2.35;;;1.48;;
77597;SDS011;66756;42.774;23.354;2023-03-14T13:25:14;2.72;;;0.50;;
77597;SDS011;66756;42.774;23.354;2023-03-14T13:27:41;2.28;;;0.60;;
77597;SDS011;66756;42.774;23.354;2023-03-14T13:32:42;2.15;;;0.63;;
77597;SDS011;66756;42.774;23.354;2023-03-14T13:35:16;1.92;;;0.43;;
77597;SDS011;66756;42.774;23.354;2023-03-14T13:37:42;2.13;;;0.45;;
77597;SDS011;66756;42.774;23.354;2023-03-14T13:40:17;2.42;;;0.45;;
77597;SDS011;66756;42.774;23.354;2023-03-14T13:42:44;1.02;;;0.55;;
77597;SDS011;66756;42.774;23.354;2023-03-14T13:45:11;1.23;;;0.38;;
77597;SDS011;66756;42.774;23.354;2023-03-14T13:47:38;1.50;;;0.50;;
77597;SDS011;66756;42.774;23.354;2023-03-14T13:50:04;1.23;;;0.50;;
77597;SDS011;66756;42.774;23.354;2023-03-14T13:52:31;2.00;;;0.50;;
77597;SDS011;66756;42.774;23.354;2023-03-14T13:54:59;1.65;;;0.52;;
77597;SDS011;66756;42.774;23.354;2023-03-14T13:57:25;2.15;;;0.32;;
77597;SDS011;66756;42.774;23.354;2023-03-14T14:00:02;2.55;;;0.70;;
77597;SDS011;66756;42.774;23.354;2023-03-14T14:02:35;3.97;;;1.25;;
77597;SDS011;66756;42.774;23.354;2023-03-14T14:05:02;1.30;;;0.35;;
77597;SDS011;66756;42.774;23.354;2023-03-14T14:07:29;1.55;;;0.43;;
77597;SDS011;66756;42.774;23.354;2023-03-14T14:09:55;2.55;;;0.43;;
77597;SDS011;66756;42.774;23.354;2023-03-14T14:14:57;3.13;;;0.22;;
77597;SDS011;66756;42.774;23.354;2023-03-14T14:17:27;1.20;;;0.20;;
77597;SDS011;66756;42.774;23.354;2023-03-14T14:19:54;1.65;;;0.30;;
77597;SDS011;66756;42.774;23.354;2023-03-14T14:22:21;1.20;;;0.22;;
77597;SDS011;66756;42.774;23.354;2023-03-14T14:24:47;1.52;;;0.30;;
77597;SDS011;66756;42.774;23.354;2023-03-14T14:29:39;1.65;;;0.40;;
77597;SDS011;66756;42.774;23.354;2023-03-14T14:34:41;1.00;;;0.30;;
77597;SDS011;66756;42.774;23.354;2023-03-14T14:37:24;1.00;;;0.25;;
77597;SDS011;66756;42.774;23.354;2023-03-14T14:39:51;1.85;;;0.38;;
77597;SDS011;66756;42.774;23.354;2023-03-14T14:42:19;0.82;;;0.22;;
77597;SDS011;66756;42.774;23.354;2023-03-14T14:44:49;0.80;;;0.20;;
77597;SDS011;66756;42.774;23.354;2023-03-14T14:47:17;1.42;;;0.30;;
77597;SDS011;66756;42.774;23.354;2023-03-14T14:49:44;1.23;;;0.45;;
77597;SDS011;66756;42.774;23.354;2023-03-14T14:52:17;3.67;;;0.60;;
77597;SDS011;66756;42.774;23.354;2023-03-14T14:54:44;2.58;;;0.35;;
77597;SDS011;66756;42.774;23.354;2023-03-14T14:57:19;0.95;;;0.30;;
77597;SDS011;66756;42.774;23.354;2023-03-14T14:59:47;1.73;;;0.40;;
77597;SDS011;66756;42.774;23.354;2023-03-14T15:02:35;1.40;;;0.22;;
77597;SDS011;66756;42.774;23.354;2023-03-14T15:05:05;1.10;;;0.68;;
77597;SDS011;66756;42.774;23.354;2023-03-14T15:07:31;2.90;;;0.38;;
77597;SDS011;66756;42.774;23.354;2023-03-14T15:09:57;1.38;;;0.63;;
77597;SDS011;66756;42.774;23.354;2023-03-14T15:12:23;1.50;;;0.63;;
77597;SDS011;66756;42.774;23.354;2023-03-14T15:14:49;1.23;;;0.30;;
77597;SDS011;66756;42.774;23.354;2023-03-14T15:17:15;1.17;;;0.50;;
77597;SDS011;66756;42.774;23.354;2023-03-14T15:19:41;2.70;;;0.28;;
77597;SDS011;66756;42.774;23.354;2023-03-14T15:22:11;2.05;;;0.43;;
77597;SDS011;66756;42.774;23.354;2023-03-14T15:24:41;2.35;;;0.60;;
77597;SDS011;66756;42.774;23.354;2023-03-14T15:27:12;2.78;;;0.70;;
77597;SDS011;66756;42.774;23.354;2023-03-14T15:29:39;2.85;;;0.57;;
77597;SDS011;66756;42.774;23.354;2023-03-14T15:32:05;3.70;;;1.25;;
77597;SDS011;66756;42.774;23.354;2023-03-14T15:34:32;2.85;;;0.77;;